Time;durP1;ratioP1;P1;durP2;ratioP2;P2;SDS_P1;SDS_P2;PMS_P1;PMS_P2;Temp;Humidity;BMP_temperature;BMP_pressure;BME280_temperature;BME280_humidity;BME280_pressure;Samples;Min_cycle;Max_cycle;Signal;HPM_P1;HPM_P2
2022/10/27 00:00:58;;;;;;;6.53;3.10;;;12.50;99.90;;;;;;6127476;19;20268;-83
2022/10/27 00:03:02;;;;;;;7.25;3.22;;;12.60;99.90;;;;;;6127962;19;19919;-83
2022/10/27 00:05:06;;;;;;;9.07;3.05;;;12.70;99.90;;;;;;6128011;19;19933;-82
2022/10/27 00:07:10;;;;;;;6.78;3.10;;;12.70;99.90;;;;;;6130990;19;19938;-83
2022/10/27 00:09:14;;;;;;;10.80;3.45;;;12.60;99.90;;;;;;6128912;19;19918;-83
2022/10/27 00:11:18;;;;;;;6.35;2.97;;;12.70;99.90;;;;;;6129439;19;19925;-83
2022/10/27 00:13:22;;;;;;;9.10;3.53;;;12.60;99.90;;;;;;6125582;19;20340;-83
2022/10/27 00:15:29;;;;;;;9.13;3.67;;;12.40;99.90;;;;;;6126027;19;19925;-83
2022/10/27 00:17:32;;;;;;;9.05;3.88;;;12.70;99.90;;;;;;6128055;19;19918;-83
2022/10/27 00:19:36;;;;;;;8.02;3.30;;;12.70;99.90;;;;;;6128046;19;19911;-82
2022/10/27 00:21:40;;;;;;;10.05;2.92;;;12.70;99.90;;;;;;6128795;19;19934;-82
2022/10/27 00:23:44;;;;;;;8.73;3.75;;;12.50;99.90;;;;;;6128607;19;19942;-82
2022/10/27 00:25:54;;;;;;;7.53;3.28;;;12.50;99.90;;;;;;6133102;19;20438;-82
2022/10/27 00:27:58;;;;;;;6.55;2.97;;;12.50;99.90;;;;;;6130342;19;19950;-83
2022/10/27 00:30:02;;;;;;;10.13;4.15;;;12.40;99.90;;;;;;6127092;19;19923;-82
2022/10/27 00:32:08;;;;;;;8.13;2.75;;;12.00;99.90;;;;;;6127598;19;19922;-83
2022/10/27 00:34:12;;;;;;;9.63;4.25;;;12.60;99.90;;;;;;6126405;19;19918;-82
2022/10/27 00:36:18;;;;;;;6.97;3.42;;;12.60;99.90;;;;;;6127612;19;20332;-82
2022/10/27 00:38:23;;;;;;;5.82;3.20;;;12.20;99.90;;;;;;6127856;19;19953;-82
2022/10/27 00:40:27;;;;;;;9.38;3.70;;;;;;;;;;6127355;19;19925;-82
2022/10/27 00:42:31;;;;;;;5.93;3.03;;;12.50;99.90;;;;;;6128686;19;20272;-82
2022/10/27 00:44:37;;;;;;;9.43;3.47;;;12.60;99.90;;;;;;6128767;19;19926;-82
2022/10/27 00:46:45;;;;;;;4.95;3.10;;;12.40;99.90;;;;;;6125874;19;20281;-82
2022/10/27 00:48:54;;;;;;;6.03;3.05;;;12.50;99.90;;;;;;6126747;19;19915;-82
2022/10/27 00:50:59;;;;;;;7.70;3.50;;;12.40;99.90;;;;;;6128601;19;20338;-82
2022/10/27 00:53:03;;;;;;;7.35;2.95;;;12.60;99.90;;;;;;6129646;19;19918;-80
2022/10/27 00:55:11;;;;;;;8.35;3.90;;;12.50;99.90;;;;;;6129338;19;19942;-82
2022/10/27 00:57:15;;;;;;;6.82;3.72;;;12.30;99.90;;;;;;6126458;19;19978;-82
2022/10/27 00:59:20;;;;;;;5.85;3.00;;;12.20;99.90;;;;;;6125989;19;19926;-82
2022/10/27 01:01:24;;;;;;;5.95;3.47;;;12.70;99.90;;;;;;6126161;19;19915;-83
2022/10/27 01:03:28;;;;;;;6.20;3.45;;;12.40;99.90;;;;;;6126604;19;20348;-83
2022/10/27 01:05:36;;;;;;;7.30;3.40;;;12.50;99.90;;;;;;6127856;19;19932;-83
2022/10/27 01:07:42;;;;;;;7.53;3.28;;;12.40;99.90;;;;;;6126115;19;19914;-83
2022/10/27 01:09:46;;;;;;;9.60;4.43;;;12.50;99.90;;;;;;6128107;19;20015;-83
2022/10/27 01:11:50;;;;;;;6.75;3.38;;;12.50;99.90;;;;;;6126125;19;20539;-82
2022/10/27 01:13:56;;;;;;;10.35;3.55;;;12.20;99.90;;;;;;6124193;19;19971;-83
2022/10/27 01:16:11;;;;;;;13.30;4.00;;;12.30;99.90;;;;;;6126310;19;19907;-83
2022/10/27 01:18:23;;;;;;;7.60;3.17;;;12.30;99.90;;;;;;6126137;19;19918;-83
2022/10/27 01:20:54;;;;;;;8.05;3.67;;;12.30;99.90;;;;;;6129218;19;19930;-83
2022/10/27 01:23:02;;;;;;;6.03;3.30;;;12.40;99.90;;;;;;6127971;19;19919;-83
2022/10/27 01:25:41;;;;;;;5.22;2.88;;;12.40;99.90;;;;;;6126426;19;19918;-83
2022/10/27 01:28:16;;;;;;;6.03;3.22;;;12.20;99.90;;;;;;6126371;19;19942;-82
2022/10/27 01:30:22;;;;;;;5.20;3.05;;;12.30;99.90;;;;;;6125453;19;19919;-83
2022/10/27 01:32:36;;;;;;;6.63;3.85;;;12.20;99.90;;;;;;6125709;19;19914;-82
2022/10/27 01:34:46;;;;;;;5.68;3.33;;;12.20;99.90;;;;;;6123498;19;20340;-83
2022/10/27 01:36:56;;;;;;;7.70;3.47;;;12.50;99.90;;;;;;6128038;19;19911;-82
2022/10/27 01:39:06;;;;;;;10.07;3.95;;;12.20;99.90;;;;;;6128467;19;20348;-83
2022/10/27 01:41:15;;;;;;;7.88;3.83;;;12.10;99.90;;;;;;6125910;19;19918;-84
2022/10/27 01:43:23;;;;;;;7.22;3.60;;;12.20;99.90;;;;;;6125866;19;19918;-83
2022/10/27 01:45:31;;;;;;;8.70;3.85;;;12.10;99.90;;;;;;6129627;19;19918;-82
2022/10/27 01:47:39;;;;;;;6.20;3.53;;;12.10;99.90;;;;;;6133695;19;19922;-83
2022/10/27 01:49:44;;;;;;;6.97;3.83;;;12.90;99.90;;;;;;6132100;19;19997;-82
2022/10/27 01:51:48;;;;;;;7.93;3.75;;;12.30;99.90;;;;;;6135216;19;20355;-83
2022/10/27 01:53:54;;;;;;;11.98;4.40;;;12.00;99.90;;;;;;6134590;19;19919;-83
2022/10/27 01:56:12;;;;;;;7.78;3.75;;;12.20;99.90;;;;;;6132665;19;19997;-83
2022/10/27 01:58:30;;;;;;;9.10;3.90;;;12.00;99.90;;;;;;6131314;19;19918;-83
2022/10/27 02:00:38;;;;;;;8.10;3.92;;;12.30;99.90;;;;;;6131973;19;19930;-83
2022/10/27 02:02:49;;;;;;;7.13;3.75;;;12.30;99.90;;;;;;6131648;19;19950;-82
2022/10/27 02:05:03;;;;;;;9.90;4.60;;;12.60;99.90;;;;;;6131294;19;19985;-83
2022/10/27 02:07:14;;;;;;;6.95;4.00;;;12.30;99.90;;;;;;6133985;19;19914;-83
2022/10/27 02:09:23;;;;;;;9.05;4.15;;;12.30;99.90;;;;;;6133780;19;19911;-83
2022/10/27 02:11:29;;;;;;;10.68;4.13;;;12.40;99.90;;;;;;6129400;19;19919;-83
2022/10/27 02:13:36;;;;;;;7.28;4.25;;;12.20;99.90;;;;;;6133885;19;19915;-83
2022/10/27 02:15:45;;;;;;;9.20;4.30;;;12.40;99.90;;;;;;6132958;19;19922;-83
2022/10/27 02:17:54;;;;;;;9.38;3.78;;;12.30;99.90;;;;;;6130855;19;19911;-83
2022/10/27 02:20:01;;;;;;;7.13;3.88;;;12.20;99.90;;;;;;6130537;19;20264;-82
2022/10/27 02:22:05;;;;;;;8.93;4.20;;;12.20;99.90;;;;;;6130632;19;19911;-83
2022/10/27 02:24:10;;;;;;;6.55;5.05;;;12.20;99.90;;;;;;6133029;19;19933;-82
2022/10/27 02:26:20;;;;;;;9.43;4.35;;;12.60;99.90;;;;;;6130166;19;19939;-82
2022/10/27 02:28:27;;;;;;;10.95;4.10;;;12.40;99.90;;;;;;6129009;19;19918;-83
2022/10/27 02:30:32;;;;;;;7.38;4.22;;;12.50;99.90;;;;;;6133814;19;19941;-82
2022/10/27 02:32:37;;;;;;;7.05;4.45;;;12.40;99.90;;;;;;6130738;19;19926;-83
2022/10/27 02:34:46;;;;;;;8.00;4.05;;;12.30;99.90;;;;;;6128281;19;19974;-83
2022/10/27 02:36:49;;;;;;;8.27;4.07;;;12.40;99.90;;;;;;6129162;19;19965;-83
2022/10/27 02:38:53;;;;;;;11.02;4.00;;;12.50;99.90;;;;;;6128239;19;19915;-82
2022/10/27 02:40:57;;;;;;;9.75;4.00;;;12.80;99.90;;;;;;6131656;19;19918;-81
2022/10/27 02:43:01;;;;;;;12.90;4.47;;;;;;;;;;6132462;19;19974;-82
2022/10/27 02:45:05;;;;;;;10.35;4.15;;;12.60;99.90;;;;;;6130443;19;19941;-82
2022/10/27 02:47:09;;;;;;;8.95;4.50;;;12.60;99.90;;;;;;6131440;19;20276;-82
2022/10/27 02:49:13;;;;;;;7.05;4.40;;;12.90;99.90;;;;;;6130850;19;19919;-83
2022/10/27 02:51:20;;;;;;;12.10;4.78;;;12.80;99.90;;;;;;6129420;19;20274;-83
2022/10/27 02:53:23;;;;;;;7.43;4.15;;;12.70;99.90;;;;;;6130281;19;20332;-82
2022/10/27 02:55:27;;;;;;;8.05;3.40;;;12.30;99.90;;;;;;6128566;19;19918;-82
2022/10/27 02:57:31;;;;;;;11.95;4.55;;;12.50;99.90;;;;;;6128300;19;19938;-83
2022/10/27 02:59:35;;;;;;;9.82;4.15;;;12.40;99.90;;;;;;6129729;19;19918;-83
2022/10/27 03:01:39;;;;;;;9.45;4.28;;;12.50;99.90;;;;;;6129672;19;20304;-83
2022/10/27 03:03:43;;;;;;;8.40;4.50;;;12.20;99.90;;;;;;6130050;19;19922;-83
2022/10/27 03:05:46;;;;;;;12.70;4.32;;;12.30;99.90;;;;;;6129508;19;20415;-83
2022/10/27 03:07:53;;;;;;;7.35;4.28;;;12.20;99.90;;;;;;6131451;19;19930;-83
2022/10/27 03:09:57;;;;;;;9.85;4.20;;;;;;;;;;6130150;19;20398;-83
2022/10/27 03:12:01;;;;;;;10.23;3.85;;;12.00;99.90;;;;;;6129522;19;19938;-83
2022/10/27 03:14:05;;;;;;;11.18;4.70;;;12.00;99.90;;;;;;6129271;19;20295;-83
2022/10/27 03:16:10;;;;;;;13.65;4.70;;;12.00;99.90;;;;;;6129567;19;19942;-83
2022/10/27 03:18:14;;;;;;;7.43;4.25;;;12.30;99.90;;;;;;6129419;19;19944;-83
2022/10/27 03:20:19;;;;;;;7.65;4.00;;;12.20;99.90;;;;;;6132823;19;19918;-82
2022/10/27 03:22:23;;;;;;;8.88;4.20;;;12.20;99.90;;;;;;6131972;19;19918;-82
2022/10/27 03:24:29;;;;;;;8.50;3.90;;;12.20;99.90;;;;;;6132349;19;19915;-83
2022/10/27 03:26:33;;;;;;;10.75;4.30;;;12.00;99.90;;;;;;6129281;19;19945;-83
2022/10/27 03:28:37;;;;;;;9.82;4.47;;;11.90;99.90;;;;;;6128635;19;19915;-83
2022/10/27 03:30:41;;;;;;;12.15;4.45;;;12.10;99.90;;;;;;6132623;19;19921;-82
2022/10/27 03:32:48;;;;;;;7.88;3.60;;;11.90;99.90;;;;;;6132414;19;20340;-82
2022/10/27 03:34:51;;;;;;;11.18;4.45;;;11.90;99.90;;;;;;6128428;19;20265;-80
2022/10/27 03:36:55;;;;;;;6.70;4.40;;;11.60;99.90;;;;;;6129229;19;19915;-83
2022/10/27 03:38:59;;;;;;;8.38;4.03;;;11.90;99.90;;;;;;6128154;19;19911;-83
2022/10/27 03:41:06;;;;;;;5.13;4.00;;;11.40;99.90;;;;;;6129324;19;20256;-83
2022/10/27 03:43:10;;;;;;;6.85;3.92;;;11.90;99.90;;;;;;6131199;19;19918;-83
2022/10/27 03:45:14;;;;;;;7.18;3.90;;;11.80;99.90;;;;;;6127331;19;19911;-82
2022/10/27 03:47:18;;;;;;;10.55;3.92;;;12.00;99.90;;;;;;6127515;19;19922;-83
2022/10/27 03:49:22;;;;;;;9.80;4.43;;;11.70;99.90;;;;;;6128162;19;19929;-83
2022/10/27 03:51:26;;;;;;;6.45;4.00;;;11.80;99.90;;;;;;6131214;19;19945;-82
2022/10/27 03:53:30;;;;;;;7.68;3.95;;;11.80;99.90;;;;;;6128735;19;20312;-83
2022/10/27 03:55:34;;;;;;;8.10;4.00;;;11.60;99.90;;;;;;6127174;19;20241;-83
2022/10/27 03:57:40;;;;;;;6.68;4.18;;;11.90;99.90;;;;;;6128712;19;19914;-82
2022/10/27 03:59:44;;;;;;;15.13;5.78;;;11.80;99.90;;;;;;6129597;19;19922;-83
2022/10/27 04:01:49;;;;;;;12.63;4.82;;;11.70;99.90;;;;;;6128154;19;19925;-83
2022/10/27 04:03:53;;;;;;;10.55;4.53;;;11.60;99.90;;;;;;6128113;19;19911;-83
2022/10/27 04:05:57;;;;;;;9.32;4.38;;;;;;;;;;6128321;19;19977;-83
2022/10/27 04:08:01;;;;;;;8.38;5.20;;;11.70;99.90;;;;;;6126611;19;19934;-84
2022/10/27 04:10:05;;;;;;;8.68;4.63;;;11.90;99.90;;;;;;6128283;19;19927;-84
2022/10/27 04:12:09;;;;;;;8.90;4.82;;;;;;;;;;6127778;19;20363;-83
2022/10/27 04:14:16;;;;;;;8.98;4.68;;;11.80;99.90;;;;;;6129306;19;20344;-84
2022/10/27 04:16:20;;;;;;;7.10;4.70;;;11.90;99.90;;;;;;6128597;19;19938;-83
2022/10/27 04:18:24;;;;;;;14.77;5.75;;;11.80;99.90;;;;;;6128047;19;19938;-84
2022/10/27 04:20:30;;;;;;;10.90;5.07;;;11.80;99.90;;;;;;6128973;19;19997;-84
2022/10/27 04:22:34;;;;;;;9.48;4.78;;;11.70;99.90;;;;;;6127965;19;19942;-84
2022/10/27 04:24:39;;;;;;;10.98;5.03;;;12.00;99.90;;;;;;6130495;19;19930;-83
2022/10/27 04:26:43;;;;;;;9.18;4.78;;;11.60;99.90;;;;;;6128041;19;20345;-84
2022/10/27 04:28:46;;;;;;;7.20;4.80;;;11.60;99.90;;;;;;6128104;19;20237;-83
2022/10/27 04:30:53;;;;;;;8.80;4.75;;;11.80;99.90;;;;;;6128791;19;19952;-84
2022/10/27 04:32:57;;;;;;;9.50;5.03;;;12.00;99.90;;;;;;6128799;19;19925;-84
2022/10/27 04:35:03;;;;;;;11.13;4.75;;;11.80;99.90;;;;;;6127889;19;19915;-83
2022/10/27 04:37:07;;;;;;;10.20;4.88;;;11.90;99.90;;;;;;6130521;19;19982;-84
2022/10/27 04:39:14;;;;;;;10.40;5.30;;;11.90;99.90;;;;;;6131082;19;19930;-83
2022/10/27 04:41:17;;;;;;;13.85;5.13;;;11.80;99.90;;;;;;6130277;19;19914;-83
2022/10/27 04:43:22;;;;;;;12.77;4.43;;;;;;;;;;6126860;19;20254;-82
2022/10/27 04:45:26;;;;;;;7.95;4.97;;;11.90;99.90;;;;;;6127534;19;19911;-83
2022/10/27 04:47:32;;;;;;;8.93;4.30;;;11.80;99.90;;;;;;6126835;19;19910;-83
2022/10/27 04:49:36;;;;;;;10.88;5.07;;;12.00;99.90;;;;;;6130251;19;19914;-82
2022/10/27 04:51:40;;;;;;;7.38;4.47;;;11.80;99.90;;;;;;6129145;19;19919;-82
2022/10/27 04:53:44;;;;;;;8.90;4.90;;;;;;;;;;6130943;19;19941;-82
2022/10/27 04:55:48;;;;;;;9.85;4.55;;;11.80;99.90;;;;;;6125767;19;20260;-83
2022/10/27 04:57:52;;;;;;;8.25;4.53;;;12.00;99.90;;;;;;6129988;19;20241;-82
2022/10/27 04:59:56;;;;;;;6.10;4.68;;;11.50;99.90;;;;;;6130849;19;19914;-82
2022/10/27 05:01:59;;;;;;;11.10;4.32;;;11.70;99.90;;;;;;6126656;19;19947;-82
2022/10/27 05:04:06;;;;;;;9.10;4.78;;;11.70;99.90;;;;;;6127603;19;19942;-83
2022/10/27 05:06:10;;;;;;;9.30;4.65;;;11.80;99.90;;;;;;6130242;19;19930;-82
2022/10/27 05:08:15;;;;;;;8.60;4.70;;;11.50;99.90;;;;;;6127158;19;19922;-82
2022/10/27 05:10:19;;;;;;;6.78;4.68;;;11.80;99.90;;;;;;6126809;19;19938;-83
2022/10/27 05:12:23;;;;;;;7.90;4.55;;;11.60;99.90;;;;;;6127276;19;19934;-83
2022/10/27 05:14:26;;;;;;;10.43;5.07;;;11.50;99.90;;;;;;6128848;19;20247;-83
2022/10/27 05:16:31;;;;;;;10.25;5.50;;;11.70;99.90;;;;;;6125285;19;20336;-83
2022/10/27 05:18:35;;;;;;;10.35;4.93;;;11.70;99.90;;;;;;6126156;19;20334;-82
2022/10/27 05:20:41;;;;;;;12.07;5.03;;;11.80;99.90;;;;;;6128846;19;19915;-82
2022/10/27 05:22:46;;;;;;;11.15;5.20;;;11.60;99.90;;;;;;6131932;19;19938;-83
2022/10/27 05:24:50;;;;;;;5.88;4.80;;;;;;;;;;6131632;19;19922;-83
2022/10/27 05:26:54;;;;;;;10.23;5.00;;;11.50;99.90;;;;;;6132183;19;19920;-82
2022/10/27 05:28:57;;;;;;;8.90;4.95;;;11.70;99.90;;;;;;6133208;19;20292;-82
2022/10/27 05:31:02;;;;;;;9.68;4.47;;;11.80;99.90;;;;;;6130366;19;19929;-83
2022/10/27 05:33:06;;;;;;;10.13;5.03;;;11.70;99.90;;;;;;6131184;19;20283;-83
2022/10/27 05:35:11;;;;;;;8.65;5.57;;;11.70;99.90;;;;;;6133747;19;19922;-83
2022/10/27 05:37:18;;;;;;;8.23;5.30;;;11.80;99.90;;;;;;6131024;19;19949;-83
2022/10/27 05:39:22;;;;;;;10.55;4.57;;;11.60;99.90;;;;;;6130905;19;20341;-83
2022/10/27 05:41:26;;;;;;;10.98;5.18;;;11.70;99.90;;;;;;6132741;19;19943;-83
2022/10/27 05:43:29;;;;;;;11.05;4.82;;;11.40;99.90;;;;;;6132206;19;19958;-83
2022/10/27 05:45:33;;;;;;;8.38;4.78;;;11.50;99.90;;;;;;6130911;19;19925;-83
2022/10/27 05:47:37;;;;;;;8.27;5.25;;;11.60;99.90;;;;;;6132236;19;20265;-82
2022/10/27 05:49:41;;;;;;;10.23;5.72;;;11.70;99.90;;;;;;6130799;19;19914;-82
2022/10/27 05:51:45;;;;;;;9.40;5.45;;;11.80;99.90;;;;;;6132123;19;19918;-83
2022/10/27 05:53:55;;;;;;;9.75;4.97;;;11.60;99.90;;;;;;6131708;19;20255;-84
2022/10/27 05:55:59;;;;;;;7.30;4.57;;;12.10;99.90;;;;;;6130999;19;19932;-83
2022/10/27 05:58:04;;;;;;;9.23;5.40;;;11.50;99.90;;;;;;6134243;19;20355;-84
2022/10/27 06:00:10;;;;;;;9.57;4.78;;;11.40;99.90;;;;;;6130161;19;19915;-83
2022/10/27 06:02:14;;;;;;;9.00;5.28;;;11.60;99.90;;;;;;6131218;19;20256;-83
2022/10/27 06:04:18;;;;;;;7.75;4.43;;;11.70;99.90;;;;;;6132816;19;19915;-83
2022/10/27 06:06:22;;;;;;;11.93;5.30;;;11.60;99.90;;;;;;6130310;19;19929;-82
2022/10/27 06:08:27;;;;;;;6.50;4.68;;;11.50;99.90;;;;;;6133856;19;19936;-79
2022/10/27 06:10:33;;;;;;;8.70;5.00;;;11.40;99.90;;;;;;6132621;19;19926;-80
2022/10/27 06:12:37;;;;;;;9.15;4.97;;;11.30;99.90;;;;;;6132494;19;20352;-74
2022/10/27 06:14:41;;;;;;;9.55;5.40;;;11.00;99.90;;;;;;6129709;19;20246;-76
2022/10/27 06:16:46;;;;;;;8.73;4.95;;;11.60;99.90;;;;;;6130477;19;19915;-76
2022/10/27 06:18:50;;;;;;;10.65;5.50;;;11.50;99.90;;;;;;6132172;19;19927;-76
2022/10/27 06:20:54;;;;;;;11.27;5.25;;;11.60;99.90;;;;;;6131626;19;19923;-79
2022/10/27 06:22:58;;;;;;;7.93;5.65;;;11.60;99.90;;;;;;6129040;19;19925;-78
2022/10/27 06:25:02;;;;;;;8.35;5.53;;;11.40;99.90;;;;;;6130658;19;19992;-79
2022/10/27 06:27:09;;;;;;;8.57;4.82;;;11.40;99.90;;;;;;6131127;19;19914;-79
2022/10/27 06:29:13;;;;;;;10.30;5.00;;;11.60;99.90;;;;;;6130682;19;19954;-79
2022/10/27 06:31:16;;;;;;;9.88;4.97;;;11.60;99.90;;;;;;6129544;19;19945;-79
2022/10/27 06:33:20;;;;;;;10.63;5.03;;;11.70;99.90;;;;;;6124646;19;19918;-79
2022/10/27 06:35:24;;;;;;;11.20;5.13;;;11.80;99.90;;;;;;6119080;19;19927;-79
2022/10/27 06:37:28;;;;;;;10.98;5.65;;;11.60;99.90;;;;;;6119173;19;20280;-79
2022/10/27 06:39:32;;;;;;;9.40;5.07;;;11.80;99.90;;;;;;6118891;19;19915;-78
2022/10/27 06:41:36;;;;;;;6.20;4.93;;;11.50;99.90;;;;;;6131931;19;20280;-79
2022/10/27 06:43:42;;;;;;;10.73;4.57;;;11.90;99.90;;;;;;6131028;19;19918;-79
2022/10/27 06:45:49;;;;;;;10.00;4.72;;;11.70;99.90;;;;;;6131309;19;19926;-79
2022/10/27 06:48:00;;;;;;;10.52;5.82;;;11.60;99.90;;;;;;6131103;19;19922;-78
2022/10/27 06:50:05;;;;;;;9.25;4.70;;;11.70;99.90;;;;;;6127916;19;19923;-78
2022/10/27 06:52:09;;;;;;;10.60;5.32;;;11.60;99.90;;;;;;6130277;19;19984;-78
2022/10/27 06:54:13;;;;;;;7.05;5.13;;;11.80;99.90;;;;;;6128993;19;19945;-79
2022/10/27 06:56:17;;;;;;;7.57;4.47;;;11.80;99.90;;;;;;6130647;19;19927;-78
2022/10/27 06:58:21;;;;;;;10.95;5.10;;;11.90;99.90;;;;;;6129069;19;19926;-79
2022/10/27 07:00:28;;;;;;;11.82;5.63;;;11.90;99.90;;;;;;6129248;19;19938;-78
2022/10/27 07:02:32;;;;;;;11.52;5.00;;;11.80;99.90;;;;;;6129729;19;19941;-79
2022/10/27 07:04:35;;;;;;;7.57;4.45;;;12.00;99.90;;;;;;6129072;19;19922;-78
2022/10/27 07:06:39;;;;;;;8.88;4.63;;;11.80;99.90;;;;;;6129658;19;19918;-79
2022/10/27 07:08:43;;;;;;;9.25;4.55;;;12.10;99.90;;;;;;6128893;19;19933;-78
2022/10/27 07:10:47;;;;;;;8.57;4.95;;;12.00;99.90;;;;;;6130961;19;19942;-77
2022/10/27 07:12:55;;;;;;;7.97;4.45;;;12.20;99.90;;;;;;6129927;19;19915;-78
2022/10/27 07:14:59;;;;;;;11.57;4.97;;;12.20;99.90;;;;;;6129175;19;19919;-77
2022/10/27 07:17:06;;;;;;;8.25;5.22;;;12.20;99.90;;;;;;6128323;19;19906;-78
2022/10/27 07:19:10;;;;;;;9.10;4.70;;;12.00;99.90;;;;;;6131315;19;19922;-79
2022/10/27 07:21:14;;;;;;;11.02;4.85;;;12.60;99.90;;;;;;6130138;19;19945;-79
2022/10/27 07:23:18;;;;;;;8.45;4.95;;;12.40;99.90;;;;;;6129882;19;19941;-78
2022/10/27 07:25:22;;;;;;;12.85;4.90;;;12.70;99.90;;;;;;6130133;19;19957;-78
2022/10/27 07:27:25;;;;;;;8.93;5.80;;;12.60;99.90;;;;;;6129220;19;19914;-78
2022/10/27 07:29:29;;;;;;;10.68;4.90;;;12.50;99.90;;;;;;6131382;19;20232;-79
2022/10/27 07:31:33;;;;;;;11.98;5.88;;;12.30;99.90;;;;;;6128931;19;19918;-79
2022/10/27 07:33:39;;;;;;;10.95;5.53;;;12.50;99.90;;;;;;6130612;19;20265;-78
2022/10/27 07:35:43;;;;;;;8.43;5.18;;;12.70;99.90;;;;;;6128427;19;19914;-78
2022/10/27 07:37:48;;;;;;;9.32;4.50;;;12.80;99.90;;;;;;6128052;19;19922;-79
2022/10/27 07:39:52;;;;;;;11.52;5.63;;;12.60;99.90;;;;;;6127666;19;19950;-79
2022/10/27 07:41:56;;;;;;;7.32;4.75;;;13.10;99.90;;;;;;6130418;19;19958;-79
2022/10/27 07:44:00;;;;;;;8.93;4.72;;;12.80;99.90;;;;;;6128711;19;19922;-80
2022/10/27 07:46:04;;;;;;;7.20;4.45;;;12.80;99.90;;;;;;6129313;19;19918;-80
2022/10/27 07:48:09;;;;;;;10.60;5.53;;;12.80;99.90;;;;;;6129887;19;20252;-80
2022/10/27 07:50:16;;;;;;;9.50;4.60;;;12.90;99.90;;;;;;6130770;19;19919;-79
2022/10/27 07:52:20;;;;;;;7.85;5.07;;;13.10;99.90;;;;;;6127268;19;20261;-79
2022/10/27 07:54:23;;;;;;;7.88;4.32;;;12.90;99.90;;;;;;6128695;19;20347;-80
2022/10/27 07:56:27;;;;;;;9.23;4.72;;;13.10;99.90;;;;;;6128750;19;19938;-80
2022/10/27 07:58:31;;;;;;;8.45;4.53;;;12.90;99.90;;;;;;6127592;19;20332;-79
2022/10/27 08:00:37;;;;;;;9.27;4.43;;;13.00;99.90;;;;;;6130847;19;19922;-80
2022/10/27 08:02:41;;;;;;;12.57;5.22;;;13.10;99.90;;;;;;6129349;19;19938;-80
2022/10/27 08:04:45;;;;;;;7.82;5.25;;;13.20;99.90;;;;;;6127510;19;19942;-80
2022/10/27 08:06:51;;;;;;;11.10;4.97;;;13.20;99.90;;;;;;6127963;19;19942;-80
2022/10/27 08:08:55;;;;;;;11.20;4.60;;;;;;;;;;6129186;19;19914;-79
2022/10/27 08:10:59;;;;;;;11.02;5.05;;;13.00;99.90;;;;;;6128521;19;19922;-80
2022/10/27 08:13:03;;;;;;;9.73;4.20;;;13.60;99.90;;;;;;6129115;19;19946;-79
2022/10/27 08:15:08;;;;;;;10.60;4.82;;;13.00;99.90;;;;;;6127657;19;19918;-80
2022/10/27 08:17:13;;;;;;;9.50;4.65;;;13.10;99.90;;;;;;6127182;19;19915;-80
2022/10/27 08:19:17;;;;;;;8.25;4.38;;;13.10;99.90;;;;;;6130013;19;19922;-79
2022/10/27 08:21:22;;;;;;;8.52;5.00;;;13.30;99.90;;;;;;6127953;19;20378;-80
2022/10/27 08:23:28;;;;;;;11.55;4.65;;;13.00;99.90;;;;;;6130572;19;20272;-81
2022/10/27 08:25:33;;;;;;;9.20;5.43;;;13.30;99.90;;;;;;6125951;19;20279;-79
2022/10/27 08:27:36;;;;;;;11.95;4.93;;;13.50;99.90;;;;;;6127513;19;19918;-80
2022/10/27 08:29:40;;;;;;;10.52;4.95;;;13.40;99.90;;;;;;6126965;19;19921;-80
2022/10/27 08:31:44;;;;;;;8.05;4.45;;;;;;;;;;6126015;19;19942;-80
2022/10/27 08:33:48;;;;;;;11.70;5.20;;;13.80;99.90;;;;;;6126900;19;19919;-79
2022/10/27 08:35:53;;;;;;;9.77;4.50;;;13.70;99.90;;;;;;6126441;19;19910;-80
2022/10/27 08:38:01;;;;;;;13.38;6.15;;;13.60;99.90;;;;;;6124732;19;20284;-79
2022/10/27 08:40:10;;;;;;;9.23;5.18;;;14.00;99.90;;;;;;6125598;19;19935;-79
2022/10/27 08:42:17;;;;;;;;;;;13.70;99.90;;;;;;6132185;19;19922;-80
2022/10/27 08:44:26;;;;;;;9.35;5.20;;;14.10;99.90;;;;;;6125948;19;19915;-80
2022/10/27 08:46:38;;;;;;;8.38;5.72;;;14.10;99.90;;;;;;6126044;19;19914;-80
2022/10/27 08:48:44;;;;;;;11.65;5.40;;;13.70;99.90;;;;;;6127472;19;19914;-80
2022/10/27 08:50:48;;;;;;;7.25;4.63;;;13.80;99.90;;;;;;6126043;19;20367;-80
2022/10/27 08:52:56;;;;;;;11.20;5.82;;;13.80;99.90;;;;;;6126209;19;19910;-80
2022/10/27 08:55:05;;;;;;;11.75;5.22;;;13.50;99.90;;;;;;6126529;19;19911;-79
2022/10/27 08:57:18;;;;;;;8.35;5.32;;;13.90;99.90;;;;;;6130201;19;20344;-80
2022/10/27 08:59:26;;;;;;;11.77;5.47;;;13.60;99.90;;;;;;6133388;19;19970;-80
2022/10/27 09:01:36;;;;;;;11.85;5.60;;;13.80;99.90;;;;;;6133599;19;19915;-80
2022/10/27 09:04:00;;;;;;;12.32;5.60;;;13.70;99.90;;;;;;6133140;19;19922;-79
2022/10/27 09:06:10;;;;;;;8.70;4.93;;;13.90;99.90;;;;;;6132092;19;19927;-79
2022/10/27 09:08:22;;;;;;;10.40;5.80;;;14.00;99.90;;;;;;6134191;19;19933;-80
2022/10/27 09:10:42;;;;;;;13.13;6.35;;;13.80;99.90;;;;;;6134869;19;19911;-80
2022/10/27 09:13:05;;;;;;;18.05;7.15;;;14.10;99.90;;;;;;6133910;19;19919;-78
2022/10/27 09:15:29;;;;;;;9.85;6.03;;;14.20;99.90;;;;;;6130861;19;20370;-80
2022/10/27 09:17:39;;;;;;;10.63;5.68;;;14.50;99.90;;;;;;6132139;19;20288;-79
2022/10/27 09:19:47;;;;;;;11.57;5.57;;;14.70;99.90;;;;;;6132913;19;19928;-80
2022/10/27 09:21:53;;;;;;;10.90;5.50;;;14.50;99.90;;;;;;6132467;19;19937;-79
2022/10/27 09:24:00;;;;;;;14.80;6.05;;;14.20;99.90;;;;;;6133084;19;19919;-79
2022/10/27 09:26:04;;;;;;;11.70;6.00;;;15.20;99.90;;;;;;6132534;19;19918;-79
2022/10/27 09:28:19;;;;;;;11.07;5.63;;;14.70;99.90;;;;;;6127544;19;20287;-78
2022/10/27 09:30:23;;;;;;;10.88;4.47;;;15.20;99.90;;;;;;6133318;19;20183;-78
2022/10/27 09:32:28;;;;;;;8.40;4.93;;;15.00;99.90;;;;;;6133238;19;20336;-79
2022/10/27 09:34:36;;;;;;;12.35;5.38;;;15.10;99.90;;;;;;6131097;19;20344;-79
2022/10/27 09:36:41;;;;;;;11.48;5.05;;;15.10;99.90;;;;;;6130601;19;20047;-80
2022/10/27 09:38:45;;;;;;;9.27;4.95;;;15.50;99.90;;;;;;6131528;19;19919;-80
2022/10/27 09:40:50;;;;;;;7.88;4.70;;;;;;;;;;6126119;19;19922;-79
2022/10/27 09:42:57;;;;;;;9.45;4.88;;;15.30;99.90;;;;;;6125601;19;19918;-79
2022/10/27 09:45:04;;;;;;;9.30;4.63;;;15.40;99.90;;;;;;6127734;19;20350;-79
2022/10/27 09:49:20;;;;;;;11.32;4.13;;;15.70;99.90;;;;;;6113264;19;19914;-68
2022/10/27 09:51:26;;;;;;;11.60;4.40;;;15.50;99.90;;;;;;6128353;19;19919;-69
2022/10/27 09:53:46;;;;;;;7.05;4.47;;;15.80;99.90;;;;;;6133278;19;20312;-68
2022/10/27 09:55:53;;;;;;;8.07;3.67;;;15.40;99.90;;;;;;6130775;19;19911;-68
2022/10/27 09:57:57;;;;;;;6.50;4.07;;;15.40;99.90;;;;;;6130015;19;19914;-69
2022/10/27 10:00:07;;;;;;;8.10;3.85;;;15.10;99.90;;;;;;6125222;19;19943;-69
2022/10/27 10:02:26;;;;;;;8.27;4.07;;;15.40;99.90;;;;;;6132401;19;20326;-69
2022/10/27 10:04:33;;;;;;;7.00;3.75;;;16.60;99.90;;;;;;6129764;19;20367;-71
2022/10/27 10:06:39;;;;;;;5.90;3.35;;;16.20;99.90;;;;;;6129577;19;19918;-70
2022/10/27 10:08:43;;;;;;;5.82;3.63;;;15.80;99.90;;;;;;6133097;19;19918;-70
2022/10/27 10:10:56;;;;;;;8.15;3.28;;;16.10;99.90;;;;;;6130090;19;19932;-70
2022/10/27 10:13:14;;;;;;;8.80;3.13;;;16.10;99.90;;;;;;6133651;19;19925;-70
2022/10/27 10:15:22;;;;;;;6.57;3.08;;;15.90;99.90;;;;;;6129946;19;19930;-70
2022/10/27 10:17:28;;;;;;;6.55;2.92;;;16.50;99.90;;;;;;6128899;19;20479;-70
2022/10/27 10:19:33;;;;;;;5.47;2.80;;;15.70;99.90;;;;;;6129951;19;19914;-70
2022/10/27 10:21:49;;;;;;;6.10;2.85;;;16.40;99.90;;;;;;6128645;19;19915;-70
2022/10/27 10:23:56;;;;;;;7.63;3.53;;;15.90;99.90;;;;;;6130838;19;19911;-70
2022/10/27 10:26:02;;;;;;;6.18;2.70;;;15.90;99.90;;;;;;6129881;19;19994;-70
2022/10/27 10:28:08;;;;;;;6.10;3.15;;;16.00;99.90;;;;;;6129978;19;19915;-70
2022/10/27 10:30:23;;;;;;;6.00;2.25;;;16.00;99.90;;;;;;6129769;19;19929;-70
2022/10/27 10:32:29;;;;;;;5.20;2.30;;;16.40;99.90;;;;;;6131256;19;19922;-70
2022/10/27 10:34:35;;;;;;;3.65;1.88;;;16.60;99.90;;;;;;6129579;19;20245;-69
2022/10/27 10:36:41;;;;;;;6.07;1.50;;;17.00;99.90;;;;;;6129379;19;19921;-69
2022/10/27 10:38:52;;;;;;;5.90;1.60;;;16.90;99.90;;;;;;6129316;19;19974;-69
2022/10/27 10:41:02;;;;;;;4.75;1.40;;;16.60;99.90;;;;;;6130063;19;20363;-69
2022/10/27 10:43:24;;;;;;;4.63;1.50;;;17.20;99.90;;;;;;6129455;19;19921;-69
2022/10/27 10:45:35;;;;;;;3.75;1.33;;;16.60;99.90;;;;;;6132629;19;19918;-70
2022/10/27 10:47:39;;;;;;;5.47;1.30;;;17.50;99.90;;;;;;6128903;19;19924;-69
2022/10/27 10:49:53;;;;;;;3.80;1.48;;;17.10;99.90;;;;;;6128171;19;19911;-69
2022/10/27 10:52:01;;;;;;;3.85;1.52;;;16.80;99.90;;;;;;6128954;19;19927;-69
2022/10/27 10:54:07;;;;;;;8.38;2.10;;;17.40;99.90;;;;;;6131617;19;19941;-69
2022/10/27 10:56:26;;;;;;;2.90;1.48;;;16.60;99.90;;;;;;6130629;19;19926;-69
2022/10/27 10:58:33;;;;;;;4.95;1.45;;;17.40;99.90;;;;;;6128054;19;20299;-69
2022/10/27 11:00:39;;;;;;;4.10;1.70;;;17.10;99.90;;;;;;6131246;19;20549;-70